createdAt,value
2019-02-18T00:00:36.620Z,478.71
2019-02-18T00:01:36.615Z,481.09
2019-02-18T00:02:36.552Z,474.59
2019-02-18T00:03:36.577Z,477.37
2019-02-18T00:04:36.566Z,477.35
2019-02-18T00:05:36.530Z,478.59
2019-02-18T00:06:36.526Z,474.32
2019-02-18T00:07:36.501Z,476.87
2019-02-18T00:08:36.493Z,475.96
2019-02-18T00:09:36.513Z,474.78
2019-02-18T00:10:36.512Z,479.63
2019-02-18T00:11:36.985Z,475.21
2019-02-18T00:12:36.636Z,476.81
2019-02-18T00:13:36.526Z,477.86
2019-02-18T00:14:36.507Z,478.14
2019-02-18T00:15:36.605Z,476.80
2019-02-18T00:16:36.980Z,473.76
2019-02-18T00:17:36.792Z,468.42
2019-02-18T00:18:36.845Z,466.40
2019-02-18T00:19:36.761Z,466.73
2019-02-18T00:20:36.950Z,469.44
2019-02-18T00:21:36.943Z,467.92
2019-02-18T00:22:36.785Z,469.51
2019-02-18T00:23:36.472Z,466.90
2019-02-18T00:24:36.525Z,470.25
2019-02-18T00:25:36.579Z,470.06
2019-02-18T00:26:36.622Z,468.16
2019-02-18T00:27:36.498Z,468.44
2019-02-18T00:28:37.165Z,462.04
2019-02-18T00:29:36.432Z,467.18
2019-02-18T00:30:36.509Z,470.79
2019-02-18T00:31:36.386Z,467.86
2019-02-18T00:32:36.365Z,472.67
2019-02-18T00:33:37.175Z,470.94
2019-02-18T00:34:36.343Z,472.57
2019-02-18T00:35:36.261Z,471.77
2019-02-18T00:36:36.304Z,473.95
2019-02-18T00:37:36.396Z,473.92
2019-02-18T00:38:36.246Z,473.09
2019-02-18T00:39:36.263Z,474.68
2019-02-18T00:40:36.247Z,476.83
2019-02-18T00:41:36.188Z,470.07
2019-02-18T00:42:36.192Z,469.85
2019-02-18T00:43:36.229Z,472.95
2019-02-18T00:44:36.143Z,469.21
2019-02-18T00:45:36.323Z,472.06
2019-02-18T00:46:36.602Z,471.77
2019-02-18T00:47:36.446Z,470.07
2019-02-18T00:48:36.512Z,473.36
2019-02-18T00:49:36.423Z,471.20
2019-02-18T00:50:36.496Z,471.44
2019-02-18T00:51:36.697Z,475.83
2019-02-18T00:52:36.408Z,472.05
2019-02-18T00:53:36.123Z,477.53
2019-02-18T00:54:36.167Z,474.83
2019-02-18T00:55:36.252Z,474.68
2019-02-18T00:56:36.161Z,474.37
2019-02-18T00:57:36.304Z,473.16
2019-02-18T00:58:36.356Z,474.17
2019-02-18T00:59:36.254Z,476.05
2019-02-18T01:00:36.161Z,477.29
2019-02-18T01:01:36.183Z,472.42
2019-02-18T01:02:35.981Z,475.89
2019-02-18T01:03:35.914Z,476.20
2019-02-18T01:04:35.966Z,473.66
2019-02-18T01:05:35.966Z,471.43
2019-02-18T01:06:35.886Z,471.20
2019-02-18T01:07:35.924Z,475.09
2019-02-18T01:08:35.933Z,477.74
2019-02-18T01:09:35.863Z,471.31
2019-02-18T01:10:35.871Z,472.95
2019-02-18T01:11:35.847Z,475.11
2019-02-18T01:12:35.809Z,472.14
2019-02-18T01:13:35.821Z,470.65
2019-02-18T01:14:35.798Z,472.56
2019-02-18T01:15:35.797Z,468.44
2019-02-18T01:16:35.799Z,473.91
2019-02-18T01:17:35.794Z,470.92
2019-02-18T01:18:35.751Z,470.59
2019-02-18T01:19:35.768Z,471.93
2019-02-18T01:20:35.751Z,469.18
2019-02-18T01:21:35.776Z,470.79
2019-02-18T01:22:35.729Z,463.76
2019-02-18T01:23:35.720Z,471.17
2019-02-18T01:24:35.704Z,468.84
2019-02-18T01:25:35.693Z,466.03
2019-02-18T01:26:35.726Z,466.53
2019-02-18T01:27:35.676Z,467.28
2019-02-18T01:28:35.687Z,470.77
2019-02-18T01:29:35.650Z,470.59
2019-02-18T01:30:35.628Z,470.37
2019-02-18T01:31:35.696Z,469.04
2019-02-18T01:32:35.635Z,466.13
2019-02-18T01:33:35.699Z,469.26
2019-02-18T01:34:35.662Z,468.02
2019-02-18T01:35:35.634Z,465.79
2019-02-18T01:36:35.638Z,466.97
2019-02-18T01:37:44.917Z,467.04
2019-02-18T01:38:36.662Z,466.34
2019-02-18T01:39:35.640Z,466.88
2019-02-18T01:40:35.599Z,467.68
2019-02-18T01:41:35.620Z,467.98
2019-02-18T01:42:35.591Z,467.13
2019-02-18T01:43:35.558Z,466.19
2019-02-18T01:44:36.174Z,467.39
2019-02-18T01:45:35.553Z,472.40
2019-02-18T01:46:35.855Z,471.31
2019-02-18T01:47:35.550Z,473.45
2019-02-18T01:48:35.526Z,471.66
2019-02-18T01:49:44.750Z,473.86
2019-02-18T01:50:35.431Z,469.31
2019-02-18T01:51:35.403Z,468.71
2019-02-18T01:52:35.394Z,474.04
2019-02-18T01:53:35.427Z,470.32
2019-02-18T01:54:35.368Z,471.13
2019-02-18T01:55:35.348Z,469.43
2019-02-18T01:56:35.349Z,473.74
2019-02-18T01:57:35.348Z,470.69
2019-02-18T01:58:35.328Z,471.56
2019-02-18T01:59:35.330Z,471.31
2019-02-18T02:00:35.312Z,474.38
2019-02-18T02:01:35.307Z,470.79
2019-02-18T02:02:35.298Z,470.67
2019-02-18T02:03:35.328Z,468.02
2019-02-18T02:04:35.311Z,470.61
2019-02-18T02:05:35.263Z,470.57
2019-02-18T02:06:35.248Z,470.87
2019-02-18T02:07:35.225Z,471.15
2019-02-18T02:08:35.219Z,473.77
2019-02-18T02:09:35.201Z,473.22
2019-02-18T02:10:35.214Z,470.60
2019-02-18T02:11:35.180Z,470.29
2019-02-18T02:12:35.177Z,471.93
2019-02-18T02:13:35.160Z,468.59
2019-02-18T02:14:35.164Z,473.98
2019-02-18T02:15:35.151Z,468.56
2019-02-18T02:16:35.145Z,471.12
2019-02-18T02:17:35.137Z,468.83
2019-02-18T02:18:35.111Z,474.69
2019-02-18T02:19:35.100Z,471.25
2019-02-18T02:20:35.132Z,471.04
2019-02-18T02:21:35.076Z,471.80
2019-02-18T02:22:35.087Z,473.32
2019-02-18T02:23:35.059Z,476.87
2019-02-18T02:24:35.059Z,472.06
2019-02-18T02:25:35.049Z,478.18
2019-02-18T02:26:35.046Z,473.62
2019-02-18T02:27:35.014Z,470.65
2019-02-18T02:28:35.027Z,471.50
2019-02-18T02:29:35.001Z,471.92
2019-02-18T02:30:35.001Z,473.21
2019-02-18T02:31:35.088Z,471.30
2019-02-18T02:32:34.976Z,471.23
2019-02-18T02:33:34.954Z,472.70
2019-02-18T02:34:34.948Z,468.13
2019-02-18T02:35:34.940Z,470.16
2019-02-18T02:36:34.943Z,469.98
2019-02-18T02:37:34.944Z,471.20
2019-02-18T02:38:34.926Z,472.88
2019-02-18T02:39:34.890Z,471.24
2019-02-18T02:40:34.890Z,471.42
2019-02-18T02:41:34.884Z,472.21
2019-02-18T02:42:34.908Z,473.14
2019-02-18T02:43:34.859Z,475.84
2019-02-18T02:44:34.853Z,469.18
2019-02-18T02:45:34.831Z,469.04
2019-02-18T02:46:34.829Z,478.02
2019-02-18T02:47:34.819Z,472.70
2019-02-18T02:48:34.818Z,471.50
2019-02-18T02:49:34.800Z,472.83
2019-02-18T02:50:34.775Z,470.25
2019-02-18T02:51:34.771Z,480.40
2019-02-18T02:52:34.763Z,471.24
2019-02-18T02:53:34.758Z,470.23
2019-02-18T02:54:34.740Z,470.26
2019-02-18T02:55:34.732Z,471.61
2019-02-18T02:56:37.325Z,470.99
2019-02-18T02:57:34.706Z,469.83
2019-02-18T02:58:34.722Z,468.91
2019-02-18T02:59:34.703Z,470.46
2019-02-18T03:00:34.661Z,471.47
2019-02-18T03:01:34.664Z,470.82
2019-02-18T03:02:34.651Z,472.60
2019-02-18T03:03:34.641Z,468.68
2019-02-18T03:04:34.646Z,469.40
2019-02-18T03:05:34.619Z,468.19
2019-02-18T03:06:34.613Z,472.86
2019-02-18T03:07:34.594Z,472.49
2019-02-18T03:08:34.584Z,467.24
2019-02-18T03:09:34.599Z,468.86
2019-02-18T03:10:34.573Z,467.36
2019-02-18T03:11:34.583Z,470.91
2019-02-18T03:12:34.549Z,464.62
2019-02-18T03:13:34.530Z,464.73
2019-02-18T03:14:34.529Z,467.36
2019-02-18T03:15:34.509Z,464.70
2019-02-18T03:16:34.496Z,460.96
2019-02-18T03:17:34.488Z,464.97
2019-02-18T03:18:34.496Z,465.88
2019-02-18T03:19:34.503Z,464.73
2019-02-18T03:20:34.467Z,472.55
2019-02-18T03:21:34.457Z,466.55
2019-02-18T03:22:34.454Z,466.74
2019-02-18T03:23:34.483Z,467.07
2019-02-18T03:24:34.421Z,469.88
2019-02-18T03:25:34.416Z,462.94
2019-02-18T03:26:34.462Z,467.79
2019-02-18T03:27:34.389Z,465.70
2019-02-18T03:28:34.402Z,465.35
2019-02-18T03:29:34.358Z,468.70
2019-02-18T03:30:34.373Z,467.04
2019-02-18T03:31:34.355Z,469.94
2019-02-18T03:32:34.369Z,466.51
2019-02-18T03:33:34.363Z,468.02
2019-02-18T03:34:34.336Z,463.75
2019-02-18T03:35:34.312Z,467.36
2019-02-18T03:36:34.301Z,467.56
2019-02-18T03:37:34.279Z,463.34
2019-02-18T03:38:34.285Z,467.51
2019-02-18T03:39:34.268Z,470.19
2019-02-18T03:40:34.280Z,468.18
2019-02-18T03:41:34.241Z,469.28
2019-02-18T03:42:34.247Z,469.00
2019-02-18T03:43:34.222Z,468.05
2019-02-18T03:44:34.246Z,473.52
2019-02-18T03:45:34.210Z,471.47
2019-02-18T03:46:34.201Z,473.44
2019-02-18T03:47:34.180Z,475.66
2019-02-18T03:48:34.172Z,471.71
2019-02-18T03:49:34.153Z,473.62
2019-02-18T03:50:34.144Z,473.16
2019-02-18T03:51:34.173Z,470.72
2019-02-18T03:52:34.126Z,470.07
2019-02-18T03:53:34.130Z,467.38
2019-02-18T03:54:34.104Z,470.65
2019-02-18T03:55:34.092Z,473.29
2019-02-18T03:56:34.128Z,467.54
2019-02-18T03:57:34.084Z,468.37
2019-02-18T03:58:34.191Z,470.80
2019-02-18T03:59:34.058Z,469.51
2019-02-18T04:00:34.048Z,468.69
2019-02-18T04:01:34.108Z,469.61
2019-02-18T04:02:34.066Z,474.96
2019-02-18T04:03:34.006Z,469.63
2019-02-18T04:04:34.005Z,470.26
2019-02-18T04:05:33.983Z,470.34
2019-02-18T04:06:33.989Z,465.82
2019-02-18T04:07:33.969Z,468.42
2019-02-18T04:08:42.540Z,467.64
2019-02-18T04:09:34.951Z,472.71
2019-02-18T04:10:33.931Z,473.84
2019-02-18T04:11:33.918Z,473.16
2019-02-18T04:12:33.940Z,467.53
2019-02-18T04:13:33.916Z,469.39
2019-02-18T04:14:33.901Z,468.30
2019-02-18T04:15:33.885Z,470.97
2019-02-18T04:16:33.873Z,467.93
2019-02-18T04:17:33.869Z,467.86
2019-02-18T04:18:33.880Z,469.82
2019-02-18T04:19:33.885Z,467.49
2019-02-18T04:20:33.850Z,469.60
2019-02-18T04:21:33.823Z,467.50
2019-02-18T04:22:33.803Z,466.91
2019-02-18T04:23:33.805Z,470.89
2019-02-18T04:24:33.790Z,472.29
2019-02-18T04:25:33.776Z,472.73
2019-02-18T04:26:33.785Z,468.38
2019-02-18T04:27:33.761Z,467.36
2019-02-18T04:28:33.775Z,469.50
2019-02-18T04:29:33.751Z,469.09
2019-02-18T04:30:33.745Z,469.22
2019-02-18T04:31:33.713Z,471.02
2019-02-18T04:32:33.720Z,469.74
2019-02-18T04:33:33.723Z,468.21
2019-02-18T04:34:33.739Z,467.26
2019-02-18T04:35:33.684Z,472.17
2019-02-18T04:36:33.667Z,479.74
2019-02-18T04:37:33.655Z,475.73
2019-02-18T04:38:33.647Z,477.48
2019-02-18T04:39:33.632Z,475.14
2019-02-18T04:40:33.635Z,471.20
2019-02-18T04:41:33.619Z,472.38
2019-02-18T04:42:33.603Z,471.28
2019-02-18T04:43:33.620Z,470.31
2019-02-18T04:44:33.588Z,468.94
2019-02-18T04:45:33.606Z,471.72
2019-02-18T04:46:33.612Z,465.54
2019-02-18T04:47:33.559Z,469.38
2019-02-18T04:48:33.537Z,470.94
2019-02-18T04:49:33.580Z,467.79
2019-02-18T04:50:33.519Z,468.31
2019-02-18T04:51:33.508Z,467.18
2019-02-18T04:52:33.517Z,464.58
2019-02-18T04:53:33.491Z,467.68
2019-02-18T04:54:33.476Z,470.62
2019-02-18T04:55:33.478Z,471.17
2019-02-18T04:56:33.509Z,468.43
2019-02-18T04:57:33.453Z,467.96
2019-02-18T04:58:33.431Z,468.77
2019-02-18T04:59:33.455Z,467.53
2019-02-18T05:00:33.463Z,468.49
2019-02-18T05:01:33.414Z,473.19
2019-02-18T05:02:33.420Z,473.71
2019-02-18T05:03:33.391Z,469.15
2019-02-18T05:04:33.375Z,470.24
2019-02-18T05:05:33.373Z,470.11
2019-02-18T05:06:33.360Z,472.81
2019-02-18T05:07:33.358Z,471.44
2019-02-18T05:08:33.339Z,468.77
2019-02-18T05:09:33.326Z,467.43
2019-02-18T05:10:33.326Z,469.98
2019-02-18T05:11:33.352Z,471.77
2019-02-18T05:12:33.314Z,470.25
2019-02-18T05:13:33.345Z,469.97
2019-02-18T05:14:33.278Z,474.24
2019-02-18T05:15:33.273Z,469.91
2019-02-18T05:16:33.248Z,471.13
2019-02-18T05:17:33.238Z,470.73
2019-02-18T05:18:33.227Z,473.03
2019-02-18T05:19:33.257Z,475.26
2019-02-18T05:20:33.201Z,473.56
2019-02-18T05:21:33.190Z,468.34
2019-02-18T05:22:33.197Z,468.54
2019-02-18T05:23:33.198Z,470.38
2019-02-18T05:24:42.303Z,469.59
2019-02-18T05:25:42.331Z,469.47
2019-02-18T05:26:33.142Z,469.07
2019-02-18T05:27:33.729Z,469.01
2019-02-18T05:28:33.139Z,472.26
2019-02-18T05:29:33.116Z,473.13
2019-02-18T05:30:33.155Z,485.54
2019-02-18T05:31:33.134Z,469.58
2019-02-18T05:32:33.182Z,476.34
2019-02-18T05:33:33.103Z,470.23
2019-02-18T05:34:33.103Z,471.17
2019-02-18T05:35:33.114Z,469.68
2019-02-18T05:36:33.108Z,473.95
2019-02-18T05:37:33.111Z,468.31
2019-02-18T05:38:33.126Z,468.34
2019-02-18T05:39:33.103Z,473.06
2019-02-18T05:40:33.066Z,472.58
2019-02-18T05:41:33.043Z,471.76
2019-02-18T05:42:33.059Z,473.38
2019-02-18T05:43:32.996Z,471.32
2019-02-18T05:44:32.972Z,471.56
2019-02-18T05:45:32.980Z,471.49
2019-02-18T05:46:32.961Z,470.61
2019-02-18T05:47:32.946Z,474.51
2019-02-18T05:48:34.089Z,475.16
2019-02-18T05:49:32.921Z,473.53
2019-02-18T05:50:32.945Z,473.66
2019-02-18T05:51:32.914Z,473.34
2019-02-18T05:52:32.901Z,469.04
2019-02-18T05:53:32.882Z,472.56
2019-02-18T05:54:32.891Z,472.74
2019-02-18T05:55:32.861Z,468.61
2019-02-18T05:56:32.880Z,469.99
2019-02-18T05:57:32.853Z,469.28
2019-02-18T05:58:32.869Z,473.02
2019-02-18T05:59:32.867Z,475.13
2019-02-18T06:00:32.847Z,470.39
2019-02-18T06:01:32.837Z,473.90
2019-02-18T06:02:32.798Z,473.61
2019-02-18T06:03:32.851Z,473.11
2019-02-18T06:04:32.767Z,476.01
2019-02-18T06:05:32.762Z,471.77
2019-02-18T06:06:32.798Z,472.21
2019-02-18T06:07:32.759Z,475.45
2019-02-18T06:08:32.817Z,472.21
2019-02-18T06:09:32.756Z,474.07
2019-02-18T06:10:32.724Z,474.18
2019-02-18T06:11:32.724Z,472.95
2019-02-18T06:12:32.736Z,472.61
2019-02-18T06:13:33.546Z,474.13
2019-02-18T06:14:32.695Z,478.78
2019-02-18T06:15:32.642Z,470.67
2019-02-18T06:16:32.633Z,474.71
2019-02-18T06:17:32.650Z,474.10
2019-02-18T06:18:32.638Z,472.87
2019-02-18T06:19:32.604Z,477.67
2019-02-18T06:20:32.598Z,473.75
2019-02-18T06:21:32.602Z,476.57
2019-02-18T06:22:32.595Z,471.99
2019-02-18T06:23:32.578Z,474.27
2019-02-18T06:24:32.555Z,477.99
2019-02-18T06:25:32.602Z,479.54
2019-02-18T06:26:32.557Z,474.14
2019-02-18T06:27:32.650Z,476.35
2019-02-18T06:28:32.864Z,474.82
2019-02-18T06:29:32.504Z,474.60
2019-02-18T06:30:32.509Z,475.23
2019-02-18T06:31:32.477Z,468.91
2019-02-18T06:32:32.460Z,470.73
2019-02-18T06:33:32.524Z,472.81
2019-02-18T06:34:32.449Z,470.40
2019-02-18T06:35:32.447Z,469.32
2019-02-18T06:36:32.450Z,467.27
2019-02-18T06:37:32.421Z,468.25
2019-02-18T06:38:32.425Z,467.61
2019-02-18T06:39:40.738Z,473.83
2019-02-18T06:40:33.388Z,470.81
2019-02-18T06:41:32.431Z,469.01
2019-02-18T06:42:32.413Z,474.07
2019-02-18T06:43:32.704Z,471.25
2019-02-18T06:44:32.410Z,468.86
2019-02-18T06:45:32.487Z,471.10
2019-02-18T06:46:32.350Z,467.81
2019-02-18T06:47:32.358Z,469.45
2019-02-18T06:48:32.321Z,471.47
2019-02-18T06:49:32.310Z,468.09
2019-02-18T06:50:32.272Z,468.48
2019-02-18T06:51:32.281Z,471.81
2019-02-18T06:52:32.735Z,473.65
2019-02-18T06:53:32.260Z,471.76
2019-02-18T06:54:32.225Z,471.52
2019-02-18T06:56:49.356Z,510.06
2019-02-18T06:57:49.289Z,471.25
2019-02-18T06:58:49.640Z,470.68
2019-02-18T06:59:49.255Z,468.65
2019-02-18T07:00:49.262Z,470.56
2019-02-18T07:01:49.246Z,469.67
2019-02-18T07:02:49.253Z,470.64
2019-02-18T07:03:49.240Z,467.26
2019-02-18T07:04:49.206Z,469.55
2019-02-18T07:05:49.191Z,472.86
2019-02-18T07:06:49.197Z,473.59
2019-02-18T07:07:49.187Z,466.07
2019-02-18T07:08:49.163Z,466.73
2019-02-18T07:09:51.503Z,472.10
2019-02-18T07:10:49.173Z,475.60
2019-02-18T07:11:49.128Z,477.66
2019-02-18T07:12:49.149Z,472.04
2019-02-18T07:13:49.121Z,473.32
2019-02-18T07:14:49.125Z,474.65
2019-02-18T07:15:49.101Z,477.50
2019-02-18T07:16:49.081Z,477.02
2019-02-18T07:17:49.075Z,476.89
2019-02-18T07:18:49.101Z,475.01
2019-02-18T07:19:49.065Z,477.13
2019-02-18T07:20:49.043Z,474.98
2019-02-18T07:21:49.042Z,477.32
2019-02-18T07:22:49.030Z,471.70
2019-02-18T07:23:49.013Z,474.20
2019-02-18T07:24:49.004Z,475.35
2019-02-18T07:25:48.983Z,477.31
2019-02-18T07:26:48.977Z,476.05
2019-02-18T07:27:48.972Z,474.77
2019-02-18T07:28:49.017Z,473.08
2019-02-18T07:29:48.971Z,475.38
2019-02-18T07:30:48.940Z,476.36
2019-02-18T07:31:48.952Z,475.56
2019-02-18T07:32:48.917Z,474.62
2019-02-18T07:33:48.895Z,472.25
2019-02-18T07:34:48.918Z,471.03
2019-02-18T07:35:48.942Z,475.65
2019-02-18T07:36:48.912Z,473.77
2019-02-18T07:37:48.871Z,474.88
2019-02-18T07:38:48.852Z,474.90
2019-02-18T07:39:48.861Z,473.41
2019-02-18T07:40:48.864Z,477.35
2019-02-18T07:41:48.848Z,474.52
2019-02-18T07:42:48.819Z,474.96
2019-02-18T07:43:48.804Z,477.45
2019-02-18T07:44:48.816Z,472.86
2019-02-18T07:45:48.795Z,477.99
2019-02-18T07:46:48.767Z,474.81
2019-02-18T07:47:48.758Z,476.36
2019-02-18T07:48:48.756Z,480.62
2019-02-18T07:49:57.782Z,472.68
2019-02-18T07:50:48.803Z,475.23
2019-02-18T07:51:48.751Z,474.92
2019-02-18T07:52:48.727Z,476.76
2019-02-18T07:53:48.722Z,479.23
2019-02-18T07:54:48.705Z,483.09
2019-02-18T07:55:48.721Z,481.93
2019-02-18T07:56:48.714Z,483.37
2019-02-18T07:57:48.707Z,484.07
2019-02-18T07:58:48.684Z,481.41
2019-02-18T07:59:48.666Z,483.22
2019-02-18T08:00:48.647Z,484.80
2019-02-18T08:01:48.651Z,480.63
2019-02-18T08:02:48.653Z,484.05
2019-02-18T08:03:48.645Z,480.89
2019-02-18T08:04:48.694Z,485.45
2019-02-18T08:05:48.602Z,480.45
2019-02-18T08:06:48.603Z,481.91
2019-02-18T08:07:48.599Z,486.09
2019-02-18T08:08:48.662Z,482.34
2019-02-18T08:09:48.551Z,480.76
2019-02-18T08:10:48.537Z,482.73
2019-02-18T08:11:48.605Z,482.90
2019-02-18T08:12:48.530Z,483.92
2019-02-18T08:13:48.519Z,486.42
2019-02-18T08:14:48.482Z,486.26
2019-02-18T08:15:48.833Z,488.60
2019-02-18T08:16:48.683Z,486.08
2019-02-18T08:17:48.767Z,488.01
2019-02-18T08:18:48.757Z,483.52
2019-02-18T08:19:48.721Z,488.73
2019-02-18T08:20:48.640Z,487.31
2019-02-18T08:21:58.805Z,488.93
2019-02-18T08:22:48.515Z,482.50
2019-02-18T08:23:48.415Z,488.58
2019-02-18T08:24:48.414Z,488.26
2019-02-18T08:25:48.375Z,485.36
2019-02-18T08:26:48.381Z,486.84
2019-02-18T08:27:48.428Z,484.67
2019-02-18T08:28:48.362Z,483.79
2019-02-18T08:29:48.351Z,487.42
2019-02-18T08:30:48.355Z,488.43
2019-02-18T08:31:48.383Z,484.53
2019-02-18T08:32:48.336Z,485.24
2019-02-18T08:33:48.335Z,484.78
2019-02-18T08:34:48.332Z,487.03
2019-02-18T08:35:48.306Z,487.73
2019-02-18T08:36:48.276Z,484.57
2019-02-18T08:37:48.272Z,485.92
2019-02-18T08:38:48.234Z,482.52
2019-02-18T08:39:48.290Z,481.81
2019-02-18T08:40:48.227Z,482.00
2019-02-18T08:41:48.273Z,484.87
2019-02-18T08:42:48.227Z,483.59
2019-02-18T08:43:48.332Z,486.66
2019-02-18T08:44:48.229Z,483.35
2019-02-18T08:45:48.232Z,483.90
2019-02-18T08:46:48.190Z,481.54
2019-02-18T08:47:48.338Z,486.84
2019-02-18T08:48:48.158Z,482.44
2019-02-18T08:49:48.173Z,480.18
2019-02-18T08:50:48.225Z,483.00
2019-02-18T08:51:48.182Z,483.99
2019-02-18T08:52:48.181Z,478.74
2019-02-18T08:53:48.161Z,479.44
2019-02-18T08:54:56.248Z,481.99
2019-02-18T08:55:49.093Z,477.41
2019-02-18T08:56:48.295Z,479.57
2019-02-18T08:57:48.093Z,476.14
2019-02-18T08:58:58.199Z,479.12
2019-02-18T08:59:48.027Z,476.50
2019-02-18T09:00:48.004Z,475.94
2019-02-18T09:01:48.023Z,476.98
2019-02-18T09:02:48.001Z,476.60
2019-02-18T09:03:48.050Z,472.05
2019-02-18T09:04:47.999Z,475.04
2019-02-18T09:05:47.977Z,471.41
2019-02-18T09:06:47.993Z,472.08
2019-02-18T09:07:48.036Z,472.26
2019-02-18T09:08:47.930Z,473.18
2019-02-18T09:09:47.977Z,475.47
2019-02-18T09:10:47.939Z,476.16
2019-02-18T09:11:47.903Z,475.62
2019-02-18T09:12:47.907Z,476.85
2019-02-18T09:13:48.010Z,471.16
2019-02-18T09:14:47.891Z,470.94
2019-02-18T09:15:47.892Z,473.44
2019-02-18T09:16:47.952Z,473.05
2019-02-18T09:17:47.948Z,473.47
2019-02-18T09:18:47.892Z,476.11
2019-02-18T09:19:47.837Z,469.87
2019-02-18T09:20:47.833Z,474.99
2019-02-18T09:21:47.822Z,471.13
2019-02-18T09:22:47.796Z,472.28
2019-02-18T09:25:54.116Z,474.04
2019-02-18T09:26:54.087Z,470.26
2019-02-18T09:27:54.120Z,470.63
2019-02-18T09:28:54.047Z,472.29
2019-02-18T09:29:54.076Z,468.71
2019-02-18T09:30:54.067Z,471.33
2019-02-18T09:31:54.059Z,474.36
2019-02-18T09:32:54.079Z,474.97
2019-02-18T09:33:54.033Z,476.93
2019-02-18T09:35:01.498Z,472.13
2019-02-18T09:35:55.016Z,478.62
2019-02-18T09:36:55.991Z,471.32
2019-02-18T09:37:54.842Z,470.25
2019-02-18T09:39:06.074Z,475.54
2019-02-18T09:39:53.994Z,480.14
2019-02-18T09:40:53.953Z,474.91
2019-02-18T09:41:53.933Z,479.15
2019-02-18T09:43:03.027Z,473.47
2019-02-18T09:43:54.007Z,476.89
2019-02-18T09:46:11.431Z,512.90
2019-02-18T09:47:11.328Z,478.80
2019-02-18T09:48:11.333Z,480.71
2019-02-18T09:49:11.463Z,471.79
2019-02-18T09:50:12.053Z,474.57
2019-02-18T09:51:11.356Z,478.47
2019-02-18T09:52:11.316Z,477.19
2019-02-18T09:53:11.267Z,478.84
2019-02-18T09:54:11.417Z,475.25
2019-02-18T09:55:11.634Z,473.05
2019-02-18T09:56:11.285Z,482.24
2019-02-18T09:57:11.335Z,475.88
2019-02-18T09:58:11.481Z,477.56
2019-02-18T09:59:11.316Z,476.02
2019-02-18T10:00:11.350Z,477.09
2019-02-18T10:01:11.663Z,482.63
2019-02-18T10:02:12.064Z,480.35
2019-02-18T10:03:11.410Z,470.03
2019-02-18T10:04:11.233Z,475.61
2019-02-18T10:05:11.272Z,475.57
2019-02-18T10:06:12.194Z,476.86
2019-02-18T10:07:11.575Z,477.78
2019-02-18T10:08:11.504Z,473.66
2019-02-18T10:09:11.133Z,476.13
2019-02-18T10:10:11.089Z,477.36
2019-02-18T10:11:11.126Z,480.63
2019-02-18T10:12:18.113Z,476.13
2019-02-18T10:13:13.060Z,471.14
2019-02-18T10:14:12.059Z,470.96
2019-02-18T10:15:11.072Z,473.23
2019-02-18T10:16:11.278Z,472.65
2019-02-18T10:17:11.078Z,471.30
2019-02-18T10:18:11.092Z,462.19
2019-02-18T10:19:11.012Z,472.25
2019-02-18T10:20:11.016Z,467.70
2019-02-18T10:21:11.017Z,469.09
2019-02-18T10:22:10.984Z,468.94
2019-02-18T10:23:10.959Z,470.54
2019-02-18T10:24:10.920Z,468.98
2019-02-18T10:25:10.987Z,473.38
2019-02-18T10:26:10.969Z,467.01
2019-02-18T10:27:11.042Z,474.14
2019-02-18T10:28:10.878Z,455.75
2019-02-18T10:29:10.874Z,469.87
2019-02-18T10:30:11.137Z,472.80
2019-02-18T10:31:10.872Z,477.19
2019-02-18T10:32:10.881Z,473.92
2019-02-18T10:33:17.647Z,474.90
2019-02-18T10:34:10.835Z,466.52
2019-02-18T10:35:10.822Z,467.04
2019-02-18T10:36:10.870Z,476.38
2019-02-18T10:37:10.928Z,464.14
2019-02-18T10:38:10.790Z,484.13
2019-02-18T10:39:10.787Z,479.68
2019-02-18T10:40:10.834Z,476.52
2019-02-18T10:41:10.748Z,462.59
2019-02-18T10:42:11.244Z,474.66
2019-02-18T10:43:10.717Z,478.26
2019-02-18T10:44:10.761Z,469.57
2019-02-18T10:45:10.706Z,457.64
2019-02-18T10:46:10.706Z,463.98
2019-02-18T10:47:10.714Z,456.64
2019-02-18T10:48:10.650Z,475.53
2019-02-18T10:49:19.302Z,476.17
2019-02-18T10:50:11.644Z,472.01
2019-02-18T10:51:10.711Z,460.54
2019-02-18T10:52:10.663Z,459.03
2019-02-18T10:53:10.826Z,459.18
2019-02-18T10:54:10.588Z,466.05
2019-02-18T10:55:10.576Z,456.04
2019-02-18T10:56:10.581Z,471.50
2019-02-18T10:57:10.651Z,452.47
2019-02-18T10:58:10.578Z,461.61
2019-02-18T10:59:10.542Z,465.73
2019-02-18T11:00:10.535Z,475.61
2019-02-18T11:01:10.533Z,469.20
2019-02-18T11:02:10.500Z,455.45
2019-02-18T11:03:10.581Z,473.80
2019-02-18T11:04:10.537Z,473.59
2019-02-18T11:05:10.516Z,472.80
2019-02-18T11:06:10.627Z,474.37
2019-02-18T11:07:10.532Z,467.17
2019-02-18T11:08:10.782Z,460.02
2019-02-18T11:09:10.425Z,467.34
2019-02-18T11:10:10.434Z,467.84
2019-02-18T11:11:17.013Z,475.26
2019-02-18T11:12:11.415Z,465.37
2019-02-18T11:13:10.466Z,459.54
2019-02-18T11:14:10.396Z,481.20
2019-02-18T11:15:10.613Z,478.60
2019-02-18T11:16:10.386Z,475.57
2019-02-18T11:17:10.341Z,474.02
2019-02-18T11:18:10.347Z,453.03
2019-02-18T11:19:10.327Z,463.33
2019-02-18T11:20:10.340Z,468.71
2019-02-18T11:21:10.350Z,461.79
2019-02-18T11:22:10.303Z,479.86
2019-02-18T11:23:10.398Z,472.25
2019-02-18T11:24:10.277Z,475.01
2019-02-18T11:25:10.251Z,468.58
2019-02-18T11:26:10.288Z,477.60
2019-02-18T11:27:10.233Z,479.18
2019-02-18T11:28:10.214Z,458.72
2019-02-18T11:29:10.263Z,465.77
2019-02-18T11:30:10.289Z,472.01
2019-02-18T11:31:10.219Z,469.34
2019-02-18T11:32:10.202Z,475.75
2019-02-18T11:33:10.188Z,469.28
2019-02-18T11:34:10.164Z,474.07
2019-02-18T11:35:10.176Z,468.21
2019-02-18T11:36:10.346Z,466.85
2019-02-18T11:37:10.184Z,483.78
2019-02-18T11:38:10.130Z,476.92
2019-02-18T11:39:10.129Z,461.79
2019-02-18T11:40:10.102Z,460.03
2019-02-18T11:41:10.096Z,470.16
2019-02-18T11:42:10.075Z,472.44
2019-02-18T11:43:10.093Z,476.18
2019-02-18T11:44:10.207Z,481.94
2019-02-18T11:45:10.074Z,477.98
2019-02-18T11:46:10.119Z,474.99
2019-02-18T11:47:10.025Z,484.47
2019-02-18T11:48:10.029Z,484.74
2019-02-18T11:49:10.410Z,463.20
2019-02-18T11:50:09.984Z,457.93
2019-02-18T11:51:09.984Z,483.45
2019-02-18T11:52:10.028Z,482.05
2019-02-18T11:53:09.958Z,463.38
2019-02-18T11:54:09.988Z,488.22
2019-02-18T11:55:09.937Z,487.61
2019-02-18T11:56:09.934Z,481.19
2019-02-18T11:57:09.953Z,468.18
2019-02-18T11:58:09.889Z,485.17
2019-02-18T11:59:09.885Z,481.73
2019-02-18T12:00:09.898Z,492.98
2019-02-18T12:01:09.897Z,482.48
2019-02-18T12:02:09.896Z,489.39
2019-02-18T12:03:12.615Z,493.68
2019-02-18T12:04:09.850Z,484.26
2019-02-18T12:05:09.837Z,478.54
2019-02-18T12:06:09.821Z,493.46
2019-02-18T12:07:09.804Z,478.01
2019-02-18T12:08:09.862Z,482.81
2019-02-18T12:09:09.782Z,488.02
2019-02-18T12:10:09.768Z,475.12
2019-02-18T12:11:09.799Z,483.88
2019-02-18T12:12:09.764Z,490.72
2019-02-18T12:13:09.759Z,486.40
2019-02-18T12:14:09.823Z,478.90
2019-02-18T12:15:09.733Z,480.52
2019-02-18T12:16:09.724Z,498.72
2019-02-18T12:17:20.074Z,481.97
2019-02-18T12:18:10.800Z,490.23
2019-02-18T12:19:09.726Z,489.94
2019-02-18T12:20:09.710Z,488.64
2019-02-18T12:21:09.703Z,482.67
2019-02-18T12:22:11.965Z,483.83
2019-02-18T12:23:10.589Z,477.93
2019-02-18T12:24:09.687Z,476.37
2019-02-18T12:25:09.639Z,462.53
2019-02-18T12:26:09.644Z,462.52
2019-02-18T12:27:09.596Z,481.20
2019-02-18T12:28:09.634Z,488.98
2019-02-18T12:29:09.621Z,483.92
2019-02-18T12:30:09.601Z,474.93
2019-02-18T12:31:09.558Z,478.26
2019-02-18T12:32:09.549Z,479.96
2019-02-18T12:33:09.521Z,477.52